sensor_id;sensor_type;location;lat;lon;timestamp;P1;durP1;ratioP1;P2;durP2;ratioP2
38238;SDS011;24035;48.900;9.188;2023-02-15T00:01:43;22.88;;;10.52;;
38238;SDS011;24035;48.900;9.188;2023-02-15T00:04:09;22.58;;;9.63;;
38238;SDS011;24035;48.900;9.188;2023-02-15T00:06:41;18.42;;;9.00;;
38238;SDS011;24035;48.900;9.188;2023-02-15T00:09:08;23.00;;;9.80;;
38238;SDS011;24035;48.900;9.188;2023-02-15T00:11:35;23.60;;;9.93;;
38238;SDS011;24035;48.900;9.188;2023-02-15T00:14:13;16.38;;;7.60;;
38238;SDS011;24035;48.900;9.188;2023-02-15T00:16:43;20.15;;;8.30;;
38238;SDS011;24035;48.900;9.188;2023-02-15T00:19:10;22.83;;;10.00;;
38238;SDS011;24035;48.900;9.188;2023-02-15T00:21:37;26.27;;;9.50;;
38238;SDS011;24035;48.900;9.188;2023-02-15T00:24:08;22.60;;;9.95;;
38238;SDS011;24035;48.900;9.188;2023-02-15T00:26:37;25.42;;;9.02;;
38238;SDS011;24035;48.900;9.188;2023-02-15T00:29:04;23.23;;;9.68;;
38238;SDS011;24035;48.900;9.188;2023-02-15T00:31:33;20.13;;;9.38;;
38238;SDS011;24035;48.900;9.188;2023-02-15T00:36:29;21.02;;;8.73;;
38238;SDS011;24035;48.900;9.188;2023-02-15T00:38:55;22.60;;;9.40;;
38238;SDS011;24035;48.900;9.188;2023-02-15T00:41:21;24.17;;;9.77;;
38238;SDS011;24035;48.900;9.188;2023-02-15T00:43:47;25.38;;;9.38;;
38238;SDS011;24035;48.900;9.188;2023-02-15T00:46:12;30.30;;;9.52;;
38238;SDS011;24035;48.900;9.188;2023-02-15T00:48:38;43.25;;;10.70;;
38238;SDS011;24035;48.900;9.188;2023-02-15T00:51:04;22.73;;;9.30;;
38238;SDS011;24035;48.900;9.188;2023-02-15T00:53:29;22.45;;;8.82;;
38238;SDS011;24035;48.900;9.188;2023-02-15T00:55:56;44.15;;;9.90;;
38238;SDS011;24035;48.900;9.188;2023-02-15T00:58:22;46.90;;;10.82;;
38238;SDS011;24035;48.900;9.188;2023-02-15T01:00:49;36.22;;;11.57;;
38238;SDS011;24035;48.900;9.188;2023-02-15T01:03:15;29.05;;;11.32;;
38238;SDS011;24035;48.900;9.188;2023-02-15T01:05:42;53.40;;;15.38;;
38238;SDS011;24035;48.900;9.188;2023-02-15T01:08:08;25.40;;;9.60;;
38238;SDS011;24035;48.900;9.188;2023-02-15T01:10:35;28.40;;;9.45;;
38238;SDS011;24035;48.900;9.188;2023-02-15T01:13:01;39.95;;;10.25;;
38238;SDS011;24035;48.900;9.188;2023-02-15T01:15:27;32.88;;;10.52;;
38238;SDS011;24035;48.900;9.188;2023-02-15T01:17:53;23.77;;;9.55;;
38238;SDS011;24035;48.900;9.188;2023-02-15T01:20:19;88.18;;;10.90;;
38238;SDS011;24035;48.900;9.188;2023-02-15T01:22:46;41.55;;;9.25;;
38238;SDS011;24035;48.900;9.188;2023-02-15T01:25:15;31.35;;;9.15;;
38238;SDS011;24035;48.900;9.188;2023-02-15T01:27:41;33.05;;;9.60;;
38238;SDS011;24035;48.900;9.188;2023-02-15T01:30:07;34.78;;;8.88;;
38238;SDS011;24035;48.900;9.188;2023-02-15T01:32:33;48.72;;;11.70;;
38238;SDS011;24035;48.900;9.188;2023-02-15T01:34:59;61.28;;;10.00;;
38238;SDS011;24035;48.900;9.188;2023-02-15T01:37:25;25.08;;;8.98;;
38238;SDS011;24035;48.900;9.188;2023-02-15T01:39:50;34.53;;;9.00;;
38238;SDS011;24035;48.900;9.188;2023-02-15T01:42:26;34.10;;;7.85;;
38238;SDS011;24035;48.900;9.188;2023-02-15T01:44:57;35.17;;;7.28;;
38238;SDS011;24035;48.900;9.188;2023-02-15T01:50:39;19.85;;;6.55;;
38238;SDS011;24035;48.900;9.188;2023-02-15T01:53:45;49.35;;;6.70;;
38238;SDS011;24035;48.900;9.188;2023-02-15T01:56:16;43.22;;;7.97;;
38238;SDS011;24035;48.900;9.188;2023-02-15T01:58:45;30.13;;;8.27;;
38238;SDS011;24035;48.900;9.188;2023-02-15T02:01:12;24.60;;;7.05;;
38238;SDS011;24035;48.900;9.188;2023-02-15T02:03:59;47.20;;;8.57;;
38238;SDS011;24035;48.900;9.188;2023-02-15T02:06:26;18.35;;;6.43;;
38238;SDS011;24035;48.900;9.188;2023-02-15T02:08:53;49.08;;;7.95;;
38238;SDS011;24035;48.900;9.188;2023-02-15T02:11:19;23.13;;;6.90;;
38238;SDS011;24035;48.900;9.188;2023-02-15T02:13:45;19.27;;;6.90;;
38238;SDS011;24035;48.900;9.188;2023-02-15T02:27:39;30.77;;;6.95;;
38238;SDS011;24035;48.900;9.188;2023-02-15T02:38:44;31.33;;;6.82;;
38238;SDS011;24035;48.900;9.188;2023-02-15T02:41:26;26.20;;;6.47;;
38238;SDS011;24035;48.900;9.188;2023-02-15T02:50:24;27.10;;;6.35;;
38238;SDS011;24035;48.900;9.188;2023-02-15T02:52:53;82.80;;;8.13;;
38238;SDS011;24035;48.900;9.188;2023-02-15T02:55:30;26.00;;;5.60;;
38238;SDS011;24035;48.900;9.188;2023-02-15T02:58:09;53.95;;;6.78;;
38238;SDS011;24035;48.900;9.188;2023-02-15T03:03:45;26.60;;;6.07;;
38238;SDS011;24035;48.900;9.188;2023-02-15T03:06:19;50.72;;;7.22;;
38238;SDS011;24035;48.900;9.188;2023-02-15T03:08:55;28.63;;;6.18;;
38238;SDS011;24035;48.900;9.188;2023-02-15T03:11:25;21.63;;;5.97;;
38238;SDS011;24035;48.900;9.188;2023-02-15T03:13:54;40.80;;;6.50;;
38238;SDS011;24035;48.900;9.188;2023-02-15T03:16:21;31.85;;;6.80;;
38238;SDS011;24035;48.900;9.188;2023-02-15T03:19:12;36.05;;;6.28;;
38238;SDS011;24035;48.900;9.188;2023-02-15T03:21:49;27.42;;;5.88;;
38238;SDS011;24035;48.900;9.188;2023-02-15T03:24:32;46.50;;;6.40;;
38238;SDS011;24035;48.900;9.188;2023-02-15T03:26:59;52.53;;;6.40;;
38238;SDS011;24035;48.900;9.188;2023-02-15T03:29:28;49.42;;;7.60;;
38238;SDS011;24035;48.900;9.188;2023-02-15T03:32:01;47.05;;;5.90;;
38238;SDS011;24035;48.900;9.188;2023-02-15T03:34:30;48.55;;;7.47;;
38238;SDS011;24035;48.900;9.188;2023-02-15T03:45:01;37.45;;;5.90;;
38238;SDS011;24035;48.900;9.188;2023-02-15T03:47:36;48.65;;;6.43;;
38238;SDS011;24035;48.900;9.188;2023-02-15T03:50:16;19.08;;;5.80;;
38238;SDS011;24035;48.900;9.188;2023-02-15T03:53:11;18.27;;;6.28;;
38238;SDS011;24035;48.900;9.188;2023-02-15T03:55:40;11.32;;;5.03;;
38238;SDS011;24035;48.900;9.188;2023-02-15T03:58:05;25.90;;;6.15;;
38238;SDS011;24035;48.900;9.188;2023-02-15T04:01:00;16.42;;;5.03;;
38238;SDS011;24035;48.900;9.188;2023-02-15T04:03:56;73.45;;;7.55;;
38238;SDS011;24035;48.900;9.188;2023-02-15T04:06:26;42.42;;;5.90;;
38238;SDS011;24035;48.900;9.188;2023-02-15T04:08:52;41.53;;;6.30;;
38238;SDS011;24035;48.900;9.188;2023-02-15T04:11:36;20.52;;;6.25;;
38238;SDS011;24035;48.900;9.188;2023-02-15T04:14:01;16.75;;;5.13;;
38238;SDS011;24035;48.900;9.188;2023-02-15T04:16:47;13.43;;;4.82;;
38238;SDS011;24035;48.900;9.188;2023-02-15T04:19:13;30.98;;;5.53;;
38238;SDS011;24035;48.900;9.188;2023-02-15T04:21:57;34.92;;;6.07;;
38238;SDS011;24035;48.900;9.188;2023-02-15T04:24:41;63.20;;;6.03;;
38238;SDS011;24035;48.900;9.188;2023-02-15T04:27:26;43.40;;;6.53;;
38238;SDS011;24035;48.900;9.188;2023-02-15T04:29:51;18.02;;;5.90;;
38238;SDS011;24035;48.900;9.188;2023-02-15T04:32:17;32.90;;;6.10;;
38238;SDS011;24035;48.900;9.188;2023-02-15T04:34:43;44.22;;;6.75;;
38238;SDS011;24035;48.900;9.188;2023-02-15T04:37:08;34.90;;;5.35;;
38238;SDS011;24035;48.900;9.188;2023-02-15T04:39:35;26.10;;;5.75;;
38238;SDS011;24035;48.900;9.188;2023-02-15T04:42:01;16.77;;;5.28;;
38238;SDS011;24035;48.900;9.188;2023-02-15T04:44:27;31.63;;;5.00;;
38238;SDS011;24035;48.900;9.188;2023-02-15T04:46:52;21.02;;;4.65;;
38238;SDS011;24035;48.900;9.188;2023-02-15T04:49:18;23.50;;;4.90;;
38238;SDS011;24035;48.900;9.188;2023-02-15T04:51:44;18.15;;;5.32;;
38238;SDS011;24035;48.900;9.188;2023-02-15T04:54:12;35.50;;;5.28;;
38238;SDS011;24035;48.900;9.188;2023-02-15T04:56:40;18.25;;;5.70;;
38238;SDS011;24035;48.900;9.188;2023-02-15T04:59:09;16.23;;;5.13;;
38238;SDS011;24035;48.900;9.188;2023-02-15T05:01:36;28.50;;;4.55;;
38238;SDS011;24035;48.900;9.188;2023-02-15T05:04:02;41.75;;;5.28;;
38238;SDS011;24035;48.900;9.188;2023-02-15T05:06:28;37.45;;;5.25;;
38238;SDS011;24035;48.900;9.188;2023-02-15T05:08:54;21.17;;;5.10;;
38238;SDS011;24035;48.900;9.188;2023-02-15T05:11:20;38.92;;;4.63;;
38238;SDS011;24035;48.900;9.188;2023-02-15T05:13:46;20.25;;;3.92;;
38238;SDS011;24035;48.900;9.188;2023-02-15T05:16:11;20.85;;;5.00;;
38238;SDS011;24035;48.900;9.188;2023-02-15T05:18:37;36.92;;;4.53;;
38238;SDS011;24035;48.900;9.188;2023-02-15T05:21:03;51.58;;;4.70;;
38238;SDS011;24035;48.900;9.188;2023-02-15T05:23:29;8.48;;;4.25;;
38238;SDS011;24035;48.900;9.188;2023-02-15T05:25:55;51.03;;;4.88;;
38238;SDS011;24035;48.900;9.188;2023-02-15T05:28:39;28.45;;;4.43;;
38238;SDS011;24035;48.900;9.188;2023-02-15T05:31:11;25.45;;;4.55;;
38238;SDS011;24035;48.900;9.188;2023-02-15T05:33:39;15.32;;;4.50;;
38238;SDS011;24035;48.900;9.188;2023-02-15T05:36:05;25.98;;;4.88;;
38238;SDS011;24035;48.900;9.188;2023-02-15T05:38:31;8.52;;;4.47;;
38238;SDS011;24035;48.900;9.188;2023-02-15T05:40:57;19.02;;;5.20;;
38238;SDS011;24035;48.900;9.188;2023-02-15T05:43:23;9.68;;;4.15;;
38238;SDS011;24035;48.900;9.188;2023-02-15T05:45:50;10.10;;;4.75;;
38238;SDS011;24035;48.900;9.188;2023-02-15T05:48:18;17.95;;;4.30;;
38238;SDS011;24035;48.900;9.188;2023-02-15T05:50:45;27.00;;;4.90;;
38238;SDS011;24035;48.900;9.188;2023-02-15T05:53:10;19.77;;;4.90;;
38238;SDS011;24035;48.900;9.188;2023-02-15T05:55:37;16.38;;;4.60;;
38238;SDS011;24035;48.900;9.188;2023-02-15T05:58:04;18.52;;;5.07;;
38238;SDS011;24035;48.900;9.188;2023-02-15T06:00:30;18.35;;;5.05;;
38238;SDS011;24035;48.900;9.188;2023-02-15T06:02:56;18.25;;;5.03;;
38238;SDS011;24035;48.900;9.188;2023-02-15T06:05:21;19.98;;;5.47;;
38238;SDS011;24035;48.900;9.188;2023-02-15T06:07:47;47.88;;;5.78;;
38238;SDS011;24035;48.900;9.188;2023-02-15T06:10:13;26.42;;;5.18;;
38238;SDS011;24035;48.900;9.188;2023-02-15T06:12:38;26.75;;;5.63;;
38238;SDS011;24035;48.900;9.188;2023-02-15T06:15:04;46.47;;;6.07;;
38238;SDS011;24035;48.900;9.188;2023-02-15T06:17:30;21.65;;;5.20;;
38238;SDS011;24035;48.900;9.188;2023-02-15T06:19:56;39.22;;;5.25;;
38238;SDS011;24035;48.900;9.188;2023-02-15T06:22:21;25.95;;;5.85;;
38238;SDS011;24035;48.900;9.188;2023-02-15T06:24:47;12.63;;;6.03;;
38238;SDS011;24035;48.900;9.188;2023-02-15T06:27:13;20.58;;;5.72;;
38238;SDS011;24035;48.900;9.188;2023-02-15T06:29:39;15.55;;;5.65;;
38238;SDS011;24035;48.900;9.188;2023-02-15T06:32:04;15.27;;;4.65;;
38238;SDS011;24035;48.900;9.188;2023-02-15T06:34:30;26.20;;;5.80;;
38238;SDS011;24035;48.900;9.188;2023-02-15T06:36:56;21.65;;;5.57;;
38238;SDS011;24035;48.900;9.188;2023-02-15T06:39:22;40.90;;;5.47;;
38238;SDS011;24035;48.900;9.188;2023-02-15T06:41:47;10.38;;;4.82;;
38238;SDS011;24035;48.900;9.188;2023-02-15T06:44:13;22.70;;;5.72;;
38238;SDS011;24035;48.900;9.188;2023-02-15T06:46:39;23.85;;;5.80;;
38238;SDS011;24035;48.900;9.188;2023-02-15T06:49:04;32.90;;;5.22;;
38238;SDS011;24035;48.900;9.188;2023-02-15T06:51:30;43.25;;;5.65;;
38238;SDS011;24035;48.900;9.188;2023-02-15T06:53:56;15.75;;;5.72;;
38238;SDS011;24035;48.900;9.188;2023-02-15T06:56:21;23.65;;;5.60;;
38238;SDS011;24035;48.900;9.188;2023-02-15T06:58:47;55.70;;;5.85;;
38238;SDS011;24035;48.900;9.188;2023-02-15T07:01:14;38.08;;;5.68;;
38238;SDS011;24035;48.900;9.188;2023-02-15T07:03:40;27.25;;;4.70;;
38238;SDS011;24035;48.900;9.188;2023-02-15T07:06:06;18.58;;;4.78;;
38238;SDS011;24035;48.900;9.188;2023-02-15T07:08:34;23.08;;;5.55;;
38238;SDS011;24035;48.900;9.188;2023-02-15T07:11:00;35.45;;;6.00;;
38238;SDS011;24035;48.900;9.188;2023-02-15T07:13:44;28.65;;;4.90;;
38238;SDS011;24035;48.900;9.188;2023-02-15T07:16:11;38.30;;;5.53;;
38238;SDS011;24035;48.900;9.188;2023-02-15T07:18:37;46.33;;;5.15;;
38238;SDS011;24035;48.900;9.188;2023-02-15T07:21:04;18.25;;;4.85;;
38238;SDS011;24035;48.900;9.188;2023-02-15T07:23:33;24.45;;;5.10;;
38238;SDS011;24035;48.900;9.188;2023-02-15T07:25:59;42.10;;;5.00;;
38238;SDS011;24035;48.900;9.188;2023-02-15T07:28:26;33.47;;;5.50;;
38238;SDS011;24035;48.900;9.188;2023-02-15T07:30:53;11.45;;;5.72;;
38238;SDS011;24035;48.900;9.188;2023-02-15T07:33:18;15.52;;;5.25;;
38238;SDS011;24035;48.900;9.188;2023-02-15T07:35:56;24.13;;;5.45;;
38238;SDS011;24035;48.900;9.188;2023-02-15T07:38:23;19.38;;;5.68;;
38238;SDS011;24035;48.900;9.188;2023-02-15T07:40:51;17.40;;;5.82;;
38238;SDS011;24035;48.900;9.188;2023-02-15T07:43:22;36.65;;;6.10;;
38238;SDS011;24035;48.900;9.188;2023-02-15T07:45:47;27.13;;;5.65;;
38238;SDS011;24035;48.900;9.188;2023-02-15T07:48:13;29.63;;;6.57;;
38238;SDS011;24035;48.900;9.188;2023-02-15T07:50:39;29.35;;;6.25;;
38238;SDS011;24035;48.900;9.188;2023-02-15T07:53:04;13.40;;;6.15;;
38238;SDS011;24035;48.900;9.188;2023-02-15T07:55:30;21.05;;;5.85;;
38238;SDS011;24035;48.900;9.188;2023-02-15T07:57:56;30.90;;;7.30;;
38238;SDS011;24035;48.900;9.188;2023-02-15T08:00:22;17.33;;;6.35;;
38238;SDS011;24035;48.900;9.188;2023-02-15T08:02:53;47.63;;;6.95;;
38238;SDS011;24035;48.900;9.188;2023-02-15T08:05:41;32.40;;;7.50;;
38238;SDS011;24035;48.900;9.188;2023-02-15T08:08:10;34.22;;;7.60;;
38238;SDS011;24035;48.900;9.188;2023-02-15T08:13:46;14.68;;;5.85;;
38238;SDS011;24035;48.900;9.188;2023-02-15T08:16:23;18.65;;;6.55;;
38238;SDS011;24035;48.900;9.188;2023-02-15T08:18:50;15.52;;;6.53;;
38238;SDS011;24035;48.900;9.188;2023-02-15T08:21:17;19.05;;;6.25;;
38238;SDS011;24035;48.900;9.188;2023-02-15T08:23:43;11.57;;;5.68;;
38238;SDS011;24035;48.900;9.188;2023-02-15T08:26:09;17.65;;;6.40;;
38238;SDS011;24035;48.900;9.188;2023-02-15T08:28:34;14.30;;;7.05;;
38238;SDS011;24035;48.900;9.188;2023-02-15T08:31:04;31.80;;;7.97;;
38238;SDS011;24035;48.900;9.188;2023-02-15T08:33:31;13.18;;;6.35;;
38238;SDS011;24035;48.900;9.188;2023-02-15T08:35:56;13.68;;;6.07;;
38238;SDS011;24035;48.900;9.188;2023-02-15T08:38:26;17.08;;;7.20;;
38238;SDS011;24035;48.900;9.188;2023-02-15T08:40:52;24.17;;;6.97;;
38238;SDS011;24035;48.900;9.188;2023-02-15T08:43:18;22.10;;;6.55;;
38238;SDS011;24035;48.900;9.188;2023-02-15T08:45:43;17.42;;;6.78;;
38238;SDS011;24035;48.900;9.188;2023-02-15T08:48:09;17.75;;;7.53;;
38238;SDS011;24035;48.900;9.188;2023-02-15T08:50:34;33.83;;;7.45;;
38238;SDS011;24035;48.900;9.188;2023-02-15T08:53:00;15.52;;;7.20;;
38238;SDS011;24035;48.900;9.188;2023-02-15T08:55:26;21.25;;;7.15;;
38238;SDS011;24035;48.900;9.188;2023-02-15T08:57:51;17.83;;;7.20;;
38238;SDS011;24035;48.900;9.188;2023-02-15T09:00:20;19.67;;;7.10;;
38238;SDS011;24035;48.900;9.188;2023-02-15T09:02:47;17.25;;;8.07;;
38238;SDS011;24035;48.900;9.188;2023-02-15T09:05:13;25.15;;;7.82;;
38238;SDS011;24035;48.900;9.188;2023-02-15T09:07:39;30.45;;;7.40;;
38238;SDS011;24035;48.900;9.188;2023-02-15T09:10:05;14.10;;;6.20;;
38238;SDS011;24035;48.900;9.188;2023-02-15T09:12:31;16.90;;;7.18;;
38238;SDS011;24035;48.900;9.188;2023-02-15T09:14:57;21.17;;;8.05;;
38238;SDS011;24035;48.900;9.188;2023-02-15T09:17:23;18.23;;;8.63;;
38238;SDS011;24035;48.900;9.188;2023-02-15T09:19:48;20.13;;;7.88;;
38238;SDS011;24035;48.900;9.188;2023-02-15T09:22:14;13.65;;;7.63;;
38238;SDS011;24035;48.900;9.188;2023-02-15T09:24:40;22.25;;;7.55;;
38238;SDS011;24035;48.900;9.188;2023-02-15T09:27:05;14.75;;;7.38;;
38238;SDS011;24035;48.900;9.188;2023-02-15T09:29:31;16.55;;;8.07;;
38238;SDS011;24035;48.900;9.188;2023-02-15T09:31:56;13.20;;;7.07;;
38238;SDS011;24035;48.900;9.188;2023-02-15T09:34:22;16.23;;;7.55;;
38238;SDS011;24035;48.900;9.188;2023-02-15T09:36:48;18.88;;;8.23;;
38238;SDS011;24035;48.900;9.188;2023-02-15T09:39:16;17.38;;;7.90;;
38238;SDS011;24035;48.900;9.188;2023-02-15T09:50:20;19.90;;;9.35;;
38238;SDS011;24035;48.900;9.188;2023-02-15T09:58:10;18.08;;;8.93;;
38238;SDS011;24035;48.900;9.188;2023-02-15T10:18:19;21.83;;;9.60;;
38238;SDS011;24035;48.900;9.188;2023-02-15T10:20:30;20.00;;;9.13;;
38238;SDS011;24035;48.900;9.188;2023-02-15T10:23:15;21.52;;;9.43;;
38238;SDS011;24035;48.900;9.188;2023-02-15T10:26:07;20.65;;;9.35;;
38238;SDS011;24035;48.900;9.188;2023-02-15T10:28:59;23.48;;;9.57;;
38238;SDS011;24035;48.900;9.188;2023-02-15T10:31:34;18.75;;;9.10;;
38238;SDS011;24035;48.900;9.188;2023-02-15T10:34:17;19.02;;;9.38;;
38238;SDS011;24035;48.900;9.188;2023-02-15T10:39:20;17.50;;;8.95;;
38238;SDS011;24035;48.900;9.188;2023-02-15T10:50:59;20.15;;;9.68;;
38238;SDS011;24035;48.900;9.188;2023-02-15T10:59:09;19.70;;;9.80;;
38238;SDS011;24035;48.900;9.188;2023-02-15T11:02:00;17.95;;;9.30;;
38238;SDS011;24035;48.900;9.188;2023-02-15T11:07:55;21.20;;;10.95;;
38238;SDS011;24035;48.900;9.188;2023-02-15T11:12:51;21.48;;;9.55;;
38238;SDS011;24035;48.900;9.188;2023-02-15T11:15:25;18.63;;;9.20;;
38238;SDS011;24035;48.900;9.188;2023-02-15T11:18:09;23.60;;;10.30;;
38238;SDS011;24035;48.900;9.188;2023-02-15T11:21:26;21.10;;;10.02;;
38238;SDS011;24035;48.900;9.188;2023-02-15T11:23:57;20.58;;;10.40;;
38238;SDS011;24035;48.900;9.188;2023-02-15T11:26:29;19.95;;;9.55;;
38238;SDS011;24035;48.900;9.188;2023-02-15T11:29:02;21.85;;;11.10;;
38238;SDS011;24035;48.900;9.188;2023-02-15T11:34:20;24.13;;;10.70;;
38238;SDS011;24035;48.900;9.188;2023-02-15T11:36:59;21.75;;;10.35;;
38238;SDS011;24035;48.900;9.188;2023-02-15T11:39:29;20.75;;;9.77;;
38238;SDS011;24035;48.900;9.188;2023-02-15T11:41:58;22.10;;;10.07;;
38238;SDS011;24035;48.900;9.188;2023-02-15T11:44:35;21.08;;;10.93;;
38238;SDS011;24035;48.900;9.188;2023-02-15T11:47:10;19.70;;;10.05;;
38238;SDS011;24035;48.900;9.188;2023-02-15T11:49:37;23.00;;;10.80;;
38238;SDS011;24035;48.900;9.188;2023-02-15T11:52:07;22.75;;;11.05;;
38238;SDS011;24035;48.900;9.188;2023-02-15T11:59:40;21.60;;;11.23;;
38238;SDS011;24035;48.900;9.188;2023-02-15T12:02:16;22.15;;;11.65;;
38238;SDS011;24035;48.900;9.188;2023-02-15T12:04:47;22.93;;;10.57;;
38238;SDS011;24035;48.900;9.188;2023-02-15T12:07:19;25.85;;;11.43;;
38238;SDS011;24035;48.900;9.188;2023-02-15T12:13:09;21.63;;;10.63;;
38238;SDS011;24035;48.900;9.188;2023-02-15T12:15:47;20.25;;;10.70;;
38238;SDS011;24035;48.900;9.188;2023-02-15T12:18:24;21.25;;;10.85;;
38238;SDS011;24035;48.900;9.188;2023-02-15T12:21:11;20.70;;;10.65;;
38238;SDS011;24035;48.900;9.188;2023-02-15T12:23:48;22.30;;;10.85;;
38238;SDS011;24035;48.900;9.188;2023-02-15T12:26:26;20.30;;;11.48;;
38238;SDS011;24035;48.900;9.188;2023-02-15T12:28:55;20.65;;;10.80;;
38238;SDS011;24035;48.900;9.188;2023-02-15T12:31:37;23.75;;;10.52;;
38238;SDS011;24035;48.900;9.188;2023-02-15T12:34:10;22.02;;;11.77;;
38238;SDS011;24035;48.900;9.188;2023-02-15T12:36:46;20.13;;;9.80;;
38238;SDS011;24035;48.900;9.188;2023-02-15T12:44:25;20.98;;;10.35;;
38238;SDS011;24035;48.900;9.188;2023-02-15T12:49:42;18.38;;;10.20;;
38238;SDS011;24035;48.900;9.188;2023-02-15T12:54:45;23.38;;;11.68;;
38238;SDS011;24035;48.900;9.188;2023-02-15T12:57:29;18.35;;;9.40;;
38238;SDS011;24035;48.900;9.188;2023-02-15T13:02:43;19.10;;;9.02;;
38238;SDS011;24035;48.900;9.188;2023-02-15T13:07:45;20.00;;;10.00;;
38238;SDS011;24035;48.900;9.188;2023-02-15T13:12:55;18.30;;;8.55;;
38238;SDS011;24035;48.900;9.188;2023-02-15T13:15:34;15.18;;;8.57;;
38238;SDS011;24035;48.900;9.188;2023-02-15T13:18:07;16.73;;;8.63;;
38238;SDS011;24035;48.900;9.188;2023-02-15T13:20:39;17.95;;;8.35;;
38238;SDS011;24035;48.900;9.188;2023-02-15T13:23:11;17.05;;;8.65;;
38238;SDS011;24035;48.900;9.188;2023-02-15T13:25:57;16.10;;;8.43;;
38238;SDS011;24035;48.900;9.188;2023-02-15T13:28:32;16.90;;;8.50;;
38238;SDS011;24035;48.900;9.188;2023-02-15T13:31:07;17.17;;;7.75;;
38238;SDS011;24035;48.900;9.188;2023-02-15T13:33:38;16.83;;;8.48;;
38238;SDS011;24035;48.900;9.188;2023-02-15T13:38:57;18.05;;;8.30;;
38238;SDS011;24035;48.900;9.188;2023-02-15T13:41:34;19.45;;;8.45;;
38238;SDS011;24035;48.900;9.188;2023-02-15T14:01:34;16.58;;;7.47;;
38238;SDS011;24035;48.900;9.188;2023-02-15T14:18:46;13.68;;;7.00;;
38238;SDS011;24035;48.900;9.188;2023-02-15T14:21:21;15.25;;;7.80;;
38238;SDS011;24035;48.900;9.188;2023-02-15T14:24:49;17.48;;;8.32;;
38238;SDS011;24035;48.900;9.188;2023-02-15T14:35:13;17.25;;;8.35;;
38238;SDS011;24035;48.900;9.188;2023-02-15T14:37:55;18.13;;;8.50;;
38238;SDS011;24035;48.900;9.188;2023-02-15T14:43:32;14.90;;;7.93;;
38238;SDS011;24035;48.900;9.188;2023-02-15T14:48:58;13.50;;;7.10;;
38238;SDS011;24035;48.900;9.188;2023-02-15T14:56:41;15.00;;;7.28;;
38238;SDS011;24035;48.900;9.188;2023-02-15T15:04:35;14.23;;;7.55;;
38238;SDS011;24035;48.900;9.188;2023-02-15T15:10:49;15.98;;;7.72;;
38238;SDS011;24035;48.900;9.188;2023-02-15T15:12:46;13.27;;;7.35;;
38238;SDS011;24035;48.900;9.188;2023-02-15T15:15:33;18.90;;;8.15;;
38238;SDS011;24035;48.900;9.188;2023-02-15T15:18:10;17.25;;;9.02;;
38238;SDS011;24035;48.900;9.188;2023-02-15T15:21:50;17.00;;;7.95;;
38238;SDS011;24035;48.900;9.188;2023-02-15T15:32:41;18.73;;;7.90;;
38238;SDS011;24035;48.900;9.188;2023-02-15T15:49:33;17.98;;;8.63;;
38238;SDS011;24035;48.900;9.188;2023-02-15T15:52:02;15.95;;;8.52;;
38238;SDS011;24035;48.900;9.188;2023-02-15T15:54:36;15.52;;;7.60;;
38238;SDS011;24035;48.900;9.188;2023-02-15T15:57:04;18.98;;;8.35;;
38238;SDS011;24035;48.900;9.188;2023-02-15T15:59:32;19.25;;;9.05;;
38238;SDS011;24035;48.900;9.188;2023-02-15T16:02:10;27.42;;;11.23;;
38238;SDS011;24035;48.900;9.188;2023-02-15T16:04:41;30.17;;;12.00;;
38238;SDS011;24035;48.900;9.188;2023-02-15T16:09:41;21.17;;;9.63;;
38238;SDS011;24035;48.900;9.188;2023-02-15T16:12:22;28.60;;;11.32;;
38238;SDS011;24035;48.900;9.188;2023-02-15T16:14:48;18.00;;;10.20;;
38238;SDS011;24035;48.900;9.188;2023-02-15T16:17:26;17.15;;;9.20;;
38238;SDS011;24035;48.900;9.188;2023-02-15T16:20:06;18.88;;;8.50;;
38238;SDS011;24035;48.900;9.188;2023-02-15T16:22:44;18.42;;;8.88;;
38238;SDS011;24035;48.900;9.188;2023-02-15T16:25:21;18.27;;;9.77;;
38238;SDS011;24035;48.900;9.188;2023-02-15T16:27:52;16.60;;;8.40;;
38238;SDS011;24035;48.900;9.188;2023-02-15T16:35:34;14.50;;;8.40;;
38238;SDS011;24035;48.900;9.188;2023-02-15T16:38:34;16.42;;;8.48;;
38238;SDS011;24035;48.900;9.188;2023-02-15T16:41:21;15.25;;;8.18;;
38238;SDS011;24035;48.900;9.188;2023-02-15T16:43:53;18.50;;;8.80;;
38238;SDS011;24035;48.900;9.188;2023-02-15T16:48:56;19.55;;;9.55;;
38238;SDS011;24035;48.900;9.188;2023-02-15T16:51:27;16.58;;;9.07;;
38238;SDS011;24035;48.900;9.188;2023-02-15T16:53:55;19.52;;;10.38;;
38238;SDS011;24035;48.900;9.188;2023-02-15T16:56:24;19.05;;;9.48;;
38238;SDS011;24035;48.900;9.188;2023-02-15T16:58:55;16.55;;;9.63;;
38238;SDS011;24035;48.900;9.188;2023-02-15T17:01:24;22.02;;;9.82;;
38238;SDS011;24035;48.900;9.188;2023-02-15T17:04:09;17.70;;;10.25;;
38238;SDS011;24035;48.900;9.188;2023-02-15T17:06:37;20.33;;;10.80;;
38238;SDS011;24035;48.900;9.188;2023-02-15T17:09:04;18.15;;;10.57;;
38238;SDS011;24035;48.900;9.188;2023-02-15T17:11:39;18.35;;;10.35;;
38238;SDS011;24035;48.900;9.188;2023-02-15T17:16:41;22.83;;;10.52;;
38238;SDS011;24035;48.900;9.188;2023-02-15T17:19:24;26.98;;;12.98;;
38238;SDS011;24035;48.900;9.188;2023-02-15T17:21:54;24.25;;;12.98;;
38238;SDS011;24035;48.900;9.188;2023-02-15T17:27:25;24.65;;;12.55;;
38238;SDS011;24035;48.900;9.188;2023-02-15T17:29:52;24.23;;;11.95;;
38238;SDS011;24035;48.900;9.188;2023-02-15T17:32:23;24.10;;;11.90;;
38238;SDS011;24035;48.900;9.188;2023-02-15T17:37:32;21.92;;;12.27;;
38238;SDS011;24035;48.900;9.188;2023-02-15T17:40:18;23.30;;;10.75;;
38238;SDS011;24035;48.900;9.188;2023-02-15T17:42:49;20.00;;;10.68;;
38238;SDS011;24035;48.900;9.188;2023-02-15T17:45:15;21.65;;;11.27;;
38238;SDS011;24035;48.900;9.188;2023-02-15T17:47:41;27.67;;;11.85;;
38238;SDS011;24035;48.900;9.188;2023-02-15T17:50:10;19.40;;;10.90;;
38238;SDS011;24035;48.900;9.188;2023-02-15T17:52:45;23.77;;;11.65;;
38238;SDS011;24035;48.900;9.188;2023-02-15T17:55:15;21.10;;;10.25;;
38238;SDS011;24035;48.900;9.188;2023-02-15T17:58:04;141.02;;;42.22;;
38238;SDS011;24035;48.900;9.188;2023-02-15T18:00:46;174.68;;;54.05;;
38238;SDS011;24035;48.900;9.188;2023-02-15T18:03:38;37.25;;;17.92;;
38238;SDS011;24035;48.900;9.188;2023-02-15T18:06:33;42.88;;;17.42;;
38238;SDS011;24035;48.900;9.188;2023-02-15T18:09:20;31.38;;;14.13;;
38238;SDS011;24035;48.900;9.188;2023-02-15T18:14:46;30.35;;;14.60;;
38238;SDS011;24035;48.900;9.188;2023-02-15T18:17:13;34.90;;;13.50;;
38238;SDS011;24035;48.900;9.188;2023-02-15T18:19:39;30.00;;;14.23;;
38238;SDS011;24035;48.900;9.188;2023-02-15T18:22:17;29.90;;;14.68;;
38238;SDS011;24035;48.900;9.188;2023-02-15T18:24:43;34.28;;;14.35;;
38238;SDS011;24035;48.900;9.188;2023-02-15T18:27:13;30.35;;;14.18;;
38238;SDS011;24035;48.900;9.188;2023-02-15T18:29:40;30.25;;;14.43;;
38238;SDS011;24035;48.900;9.188;2023-02-15T18:32:07;23.60;;;12.43;;
38238;SDS011;24035;48.900;9.188;2023-02-15T18:34:40;29.02;;;14.00;;
38238;SDS011;24035;48.900;9.188;2023-02-15T18:37:13;28.23;;;13.65;;
38238;SDS011;24035;48.900;9.188;2023-02-15T18:39:42;27.35;;;13.60;;
38238;SDS011;24035;48.900;9.188;2023-02-15T18:42:44;24.65;;;12.80;;
38238;SDS011;24035;48.900;9.188;2023-02-15T18:45:12;30.38;;;14.45;;
38238;SDS011;24035;48.900;9.188;2023-02-15T18:47:44;27.25;;;13.23;;
38238;SDS011;24035;48.900;9.188;2023-02-15T18:50:11;31.63;;;15.30;;
38238;SDS011;24035;48.900;9.188;2023-02-15T18:52:37;30.15;;;14.05;;